sensor_id;sensor_type;location;lat;lon;timestamp;pressure;altitude;pressure_sealevel;temperature;humidity
22651;BME280;11492;42.646;23.400;2022-11-20T00:01:20;94356.38;;;14.82;76.25
22651;BME280;11492;42.646;23.400;2022-11-20T00:03:46;94341.78;;;14.81;76.17
22651;BME280;11492;42.646;23.400;2022-11-20T00:06:14;94323.00;;;14.79;75.91
22651;BME280;11492;42.646;23.400;2022-11-20T00:08:40;94341.78;;;14.81;75.91
22651;BME280;11492;42.646;23.400;2022-11-20T00:11:07;94363.47;;;14.75;76.38
22651;BME280;11492;42.646;23.400;2022-11-20T00:13:33;94373.00;;;14.46;77.04
22651;BME280;11492;42.646;23.400;2022-11-20T00:16:00;94350.38;;;14.64;75.84
22651;BME280;11492;42.646;23.400;2022-11-20T00:18:26;94317.09;;;14.72;74.50
22651;BME280;11492;42.646;23.400;2022-11-20T00:20:52;94340.13;;;14.86;74.10
22651;BME280;11492;42.646;23.400;2022-11-20T00:23:18;94328.16;;;14.96;73.52
22651;BME280;11492;42.646;23.400;2022-11-20T00:25:43;94318.69;;;15.02;72.09
22651;BME280;11492;42.646;23.400;2022-11-20T00:28:09;94320.88;;;15.16;70.91
22651;BME280;11492;42.646;23.400;2022-11-20T00:30:34;94328.88;;;15.32;69.78
22651;BME280;11492;42.646;23.400;2022-11-20T00:32:59;94335.09;;;15.43;69.67
22651;BME280;11492;42.646;23.400;2022-11-20T00:35:25;94326.97;;;15.50;69.46
22651;BME280;11492;42.646;23.400;2022-11-20T00:37:50;94316.66;;;15.55;70.21
22651;BME280;11492;42.646;23.400;2022-11-20T00:40:15;94322.91;;;15.54;70.31
22651;BME280;11492;42.646;23.400;2022-11-20T00:42:41;94338.16;;;15.51;70.93
22651;BME280;11492;42.646;23.400;2022-11-20T00:45:06;94329.13;;;15.53;71.04
22651;BME280;11492;42.646;23.400;2022-11-20T00:47:32;94322.88;;;15.43;70.78
22651;BME280;11492;42.646;23.400;2022-11-20T00:49:57;94335.31;;;15.52;70.39
22651;BME280;11492;42.646;23.400;2022-11-20T00:52:23;94329.56;;;15.50;70.73
22651;BME280;11492;42.646;23.400;2022-11-20T00:54:48;94346.56;;;15.53;70.36
22651;BME280;11492;42.646;23.400;2022-11-20T00:57:13;94354.00;;;15.49;70.42
22651;BME280;11492;42.646;23.400;2022-11-20T00:59:39;94362.59;;;15.39;68.80
22651;BME280;11492;42.646;23.400;2022-11-20T01:02:04;94345.16;;;15.50;68.35
22651;BME280;11492;42.646;23.400;2022-11-20T01:04:30;94344.97;;;15.63;68.03
22651;BME280;11492;42.646;23.400;2022-11-20T01:06:55;94355.81;;;15.60;68.79
22651;BME280;11492;42.646;23.400;2022-11-20T01:09:20;94316.66;;;15.55;67.85
22651;BME280;11492;42.646;23.400;2022-11-20T01:11:46;94323.25;;;15.69;68.24
22651;BME280;11492;42.646;23.400;2022-11-20T01:14:17;94317.03;;;15.70;67.82
22651;BME280;11492;42.646;23.400;2022-11-20T01:16:48;94312.59;;;15.71;68.37
22651;BME280;11492;42.646;23.400;2022-11-20T01:19:18;94328.91;;;15.66;68.61
22651;BME280;11492;42.646;23.400;2022-11-20T01:21:44;94321.75;;;15.62;68.45
22651;BME280;11492;42.646;23.400;2022-11-20T01:24:12;94314.19;;;15.60;67.49
22651;BME280;11492;42.646;23.400;2022-11-20T01:26:40;94321.66;;;15.68;68.38
22651;BME280;11492;42.646;23.400;2022-11-20T01:29:23;94305.03;;;15.58;68.89
22651;BME280;11492;42.646;23.400;2022-11-20T01:31:49;94302.50;;;15.63;67.92
22651;BME280;11492;42.646;23.400;2022-11-20T01:34:17;94294.69;;;15.63;67.64
22651;BME280;11492;42.646;23.400;2022-11-20T01:36:43;94281.69;;;15.63;68.34
22651;BME280;11492;42.646;23.400;2022-11-20T01:39:17;94274.22;;;15.66;67.97
22651;BME280;11492;42.646;23.400;2022-11-20T01:41:46;94269.81;;;15.67;68.25
22651;BME280;11492;42.646;23.400;2022-11-20T01:44:56;94281.50;;;15.64;68.38
22651;BME280;11492;42.646;23.400;2022-11-20T01:50:15;94267.78;;;15.57;68.85
22651;BME280;11492;42.646;23.400;2022-11-20T01:52:54;94277.28;;;15.52;69.11
22651;BME280;11492;42.646;23.400;2022-11-20T01:55:24;94292.22;;;15.56;69.57
22651;BME280;11492;42.646;23.400;2022-11-20T01:57:51;94258.63;;;15.55;68.61
22651;BME280;11492;42.646;23.400;2022-11-20T02:00:19;94263.03;;;15.54;68.57
22651;BME280;11492;42.646;23.400;2022-11-20T02:02:50;94277.75;;;15.60;69.49
22651;BME280;11492;42.646;23.400;2022-11-20T02:08:02;94276.47;;;15.63;68.53
22651;BME280;11492;42.646;23.400;2022-11-20T02:10:29;94274.13;;;15.61;68.30
22651;BME280;11492;42.646;23.400;2022-11-20T02:12:55;94273.69;;;15.64;69.23
22651;BME280;11492;42.646;23.400;2022-11-20T02:15:39;94295.72;;;15.62;69.70
22651;BME280;11492;42.646;23.400;2022-11-20T02:18:05;94305.47;;;15.55;69.19
22651;BME280;11492;42.646;23.400;2022-11-20T02:20:32;94300.63;;;15.58;66.81
22651;BME280;11492;42.646;23.400;2022-11-20T02:23:53;94290.19;;;15.70;67.54
22651;BME280;11492;42.646;23.400;2022-11-20T02:26:00;94275.47;;;15.75;66.76
22651;BME280;11492;42.646;23.400;2022-11-20T02:28:27;94288.84;;;15.78;67.41
22651;BME280;11492;42.646;23.400;2022-11-20T02:30:52;94280.22;;;15.78;66.99
22651;BME280;11492;42.646;23.400;2022-11-20T02:33:18;94284.19;;;15.80;67.50
22651;BME280;11492;42.646;23.400;2022-11-20T02:35:45;94289.84;;;15.77;67.99
22651;BME280;11492;42.646;23.400;2022-11-20T02:38:11;94281.69;;;15.85;65.78
22651;BME280;11492;42.646;23.400;2022-11-20T02:40:37;94272.41;;;15.89;66.27
22651;BME280;11492;42.646;23.400;2022-11-20T02:43:03;94294.47;;;15.98;65.47
22651;BME280;11492;42.646;23.400;2022-11-20T02:45:28;94289.06;;;15.99;65.79
22651;BME280;11492;42.646;23.400;2022-11-20T02:47:53;94302.41;;;16.14;63.07
22651;BME280;11492;42.646;23.400;2022-11-20T02:50:19;94320.31;;;16.22;64.31
22651;BME280;11492;42.646;23.400;2022-11-20T02:52:44;94303.09;;;16.21;64.26
22651;BME280;11492;42.646;23.400;2022-11-20T02:55:10;94324.97;;;16.20;65.17
22651;BME280;11492;42.646;23.400;2022-11-20T02:57:35;94312.72;;;16.21;64.87
22651;BME280;11492;42.646;23.400;2022-11-20T03:00:01;94317.53;;;16.40;62.24
22651;BME280;11492;42.646;23.400;2022-11-20T03:02:31;94322.84;;;16.83;58.11
22651;BME280;11492;42.646;23.400;2022-11-20T03:04:56;94302.31;;;17.14;56.79
22651;BME280;11492;42.646;23.400;2022-11-20T03:07:22;94341.34;;;17.37;56.86
22651;BME280;11492;42.646;23.400;2022-11-20T03:09:47;94339.84;;;17.73;55.72
22651;BME280;11492;42.646;23.400;2022-11-20T03:12:13;94339.84;;;17.89;54.64
22651;BME280;11492;42.646;23.400;2022-11-20T03:14:39;94320.31;;;17.92;54.67
22651;BME280;11492;42.646;23.400;2022-11-20T03:17:04;94338.22;;;17.99;55.29
22651;BME280;11492;42.646;23.400;2022-11-20T03:19:30;94335.75;;;17.93;54.88
22651;BME280;11492;42.646;23.400;2022-11-20T03:21:55;94331.84;;;18.28;53.73
22651;BME280;11492;42.646;23.400;2022-11-20T03:24:21;94350.81;;;18.40;53.33
22651;BME280;11492;42.646;23.400;2022-11-20T03:26:46;94346.91;;;18.42;53.69
22651;BME280;11492;42.646;23.400;2022-11-20T03:29:11;94351.41;;;18.47;53.87
22651;BME280;11492;42.646;23.400;2022-11-20T03:31:39;94350.03;;;18.60;53.26
22651;BME280;11492;42.646;23.400;2022-11-20T03:34:06;94333.31;;;18.61;53.14
22651;BME280;11492;42.646;23.400;2022-11-20T03:36:32;94362.53;;;18.74;53.06
22651;BME280;11492;42.646;23.400;2022-11-20T03:38:59;94348.03;;;18.67;53.27
22651;BME280;11492;42.646;23.400;2022-11-20T03:41:30;94353.78;;;18.85;52.21
22651;BME280;11492;42.646;23.400;2022-11-20T03:43:58;94366.41;;;18.72;52.33
22651;BME280;11492;42.646;23.400;2022-11-20T03:46:24;94360.94;;;18.73;52.61
22651;BME280;11492;42.646;23.400;2022-11-20T03:48:49;94360.69;;;18.75;52.29
22651;BME280;11492;42.646;23.400;2022-11-20T03:51:16;94372.81;;;18.81;52.70
22651;BME280;11492;42.646;23.400;2022-11-20T03:53:44;94355.47;;;18.75;52.41
22651;BME280;11492;42.646;23.400;2022-11-20T03:56:11;94365.16;;;18.74;53.46
22651;BME280;11492;42.646;23.400;2022-11-20T03:58:38;94357.41;;;18.63;52.08
22651;BME280;11492;42.646;23.400;2022-11-20T04:01:16;94359.19;;;18.79;51.91
22651;BME280;11492;42.646;23.400;2022-11-20T04:03:43;94359.66;;;18.76;51.66
22651;BME280;11492;42.646;23.400;2022-11-20T04:06:14;94348.41;;;18.75;52.11
22651;BME280;11492;42.646;23.400;2022-11-20T04:08:40;94350.78;;;18.77;51.49
22651;BME280;11492;42.646;23.400;2022-11-20T04:11:21;94364.56;;;18.72;52.06
22651;BME280;11492;42.646;23.400;2022-11-20T04:13:49;94349.44;;;18.74;51.37
22651;BME280;11492;42.646;23.400;2022-11-20T04:16:14;94352.28;;;18.73;51.71
22651;BME280;11492;42.646;23.400;2022-11-20T04:18:40;94369.50;;;18.85;51.49
22651;BME280;11492;42.646;23.400;2022-11-20T04:21:06;94372.72;;;18.92;51.39
22651;BME280;11492;42.646;23.400;2022-11-20T04:23:32;94377.63;;;18.89;51.08
22651;BME280;11492;42.646;23.400;2022-11-20T04:26:16;94387.16;;;18.95;50.86
22651;BME280;11492;42.646;23.400;2022-11-20T04:28:41;94376.91;;;18.93;50.61
22651;BME280;11492;42.646;23.400;2022-11-20T04:31:09;94382.16;;;18.77;51.06
22651;BME280;11492;42.646;23.400;2022-11-20T04:33:36;94390.59;;;18.79;51.17
22651;BME280;11492;42.646;23.400;2022-11-20T04:36:07;94387.41;;;18.77;51.69
22651;BME280;11492;42.646;23.400;2022-11-20T04:38:33;94389.94;;;18.72;51.93
22651;BME280;11492;42.646;23.400;2022-11-20T04:41:00;94378.69;;;18.72;51.92
22651;BME280;11492;42.646;23.400;2022-11-20T04:43:26;94394.44;;;18.55;52.76
22651;BME280;11492;42.646;23.400;2022-11-20T04:45:55;94380.97;;;18.63;53.02
22651;BME280;11492;42.646;23.400;2022-11-20T04:48:21;94368.97;;;18.67;53.09
22651;BME280;11492;42.646;23.400;2022-11-20T04:50:47;94352.25;;;18.68;52.43
22651;BME280;11492;42.646;23.400;2022-11-20T04:53:12;94362.22;;;18.71;53.16
22651;BME280;11492;42.646;23.400;2022-11-20T04:55:37;94358.56;;;18.72;52.68
22651;BME280;11492;42.646;23.400;2022-11-20T04:58:03;94357.78;;;18.72;52.35
22651;BME280;11492;42.646;23.400;2022-11-20T05:00:28;94349.91;;;18.72;53.04
22651;BME280;11492;42.646;23.400;2022-11-20T05:02:54;94363.00;;;18.72;53.12
22651;BME280;11492;42.646;23.400;2022-11-20T05:05:19;94360.44;;;18.55;53.84
22651;BME280;11492;42.646;23.400;2022-11-20T05:07:45;94355.28;;;18.60;53.66
22651;BME280;11492;42.646;23.400;2022-11-20T05:10:10;94362.34;;;18.60;54.68
22651;BME280;11492;42.646;23.400;2022-11-20T05:12:35;94376.59;;;18.52;55.57
22651;BME280;11492;42.646;23.400;2022-11-20T05:15:01;94385.91;;;18.44;56.46
22651;BME280;11492;42.646;23.400;2022-11-20T05:17:26;94374.69;;;18.11;59.00
22651;BME280;11492;42.646;23.400;2022-11-20T05:19:51;94369.69;;;17.93;59.93
22651;BME280;11492;42.646;23.400;2022-11-20T05:22:17;94356.31;;;17.73;60.77
22651;BME280;11492;42.646;23.400;2022-11-20T05:24:42;94357.44;;;17.61;61.82
22651;BME280;11492;42.646;23.400;2022-11-20T05:27:09;94355.09;;;17.48;62.49
22651;BME280;11492;42.646;23.400;2022-11-20T05:29:34;94340.97;;;17.45;63.11
22651;BME280;11492;42.646;23.400;2022-11-20T05:31:59;94344.91;;;17.31;63.16
22651;BME280;11492;42.646;23.400;2022-11-20T05:34:25;94345.84;;;17.25;64.14
22651;BME280;11492;42.646;23.400;2022-11-20T05:36:50;94336.34;;;17.19;63.80
22651;BME280;11492;42.646;23.400;2022-11-20T05:39:16;94338.06;;;17.14;63.58
22651;BME280;11492;42.646;23.400;2022-11-20T05:41:41;94335.13;;;17.10;63.94
22651;BME280;11492;42.646;23.400;2022-11-20T05:44:06;94331.25;;;17.13;63.43
22651;BME280;11492;42.646;23.400;2022-11-20T05:46:32;94320.50;;;17.09;63.66
22651;BME280;11492;42.646;23.400;2022-11-20T05:48:57;94323.50;;;17.18;63.62
22651;BME280;11492;42.646;23.400;2022-11-20T05:51:23;94319.56;;;17.15;63.40
22651;BME280;11492;42.646;23.400;2022-11-20T05:53:49;94306.28;;;17.17;63.22
22651;BME280;11492;42.646;23.400;2022-11-20T05:56:17;94295.69;;;17.23;62.05
22651;BME280;11492;42.646;23.400;2022-11-20T05:58:43;94322.44;;;17.30;62.13
22651;BME280;11492;42.646;23.400;2022-11-20T06:01:14;94322.72;;;17.33;62.58
22651;BME280;11492;42.646;23.400;2022-11-20T06:03:41;94325.59;;;17.32;62.71
22651;BME280;11492;42.646;23.400;2022-11-20T06:06:08;94321.50;;;17.36;62.42
22651;BME280;11492;42.646;23.400;2022-11-20T06:08:34;94329.56;;;17.34;62.34
22651;BME280;11492;42.646;23.400;2022-11-20T06:11:08;94312.28;;;17.33;61.87
22651;BME280;11492;42.646;23.400;2022-11-20T06:13:34;94310.56;;;17.39;61.23
22651;BME280;11492;42.646;23.400;2022-11-20T06:16:00;94329.09;;;17.53;60.91
22651;BME280;11492;42.646;23.400;2022-11-20T06:18:27;94315.81;;;17.55;60.61
22651;BME280;11492;42.646;23.400;2022-11-20T06:21:20;94326.63;;;17.63;60.20
22651;BME280;11492;42.646;23.400;2022-11-20T06:23:46;94336.28;;;17.63;60.59
22651;BME280;11492;42.646;23.400;2022-11-20T06:26:17;94343.50;;;17.72;61.00
22651;BME280;11492;42.646;23.400;2022-11-20T06:28:43;94347.38;;;17.70;60.64
22651;BME280;11492;42.646;23.400;2022-11-20T06:31:11;94348.41;;;17.69;61.46
22651;BME280;11492;42.646;23.400;2022-11-20T06:33:38;94343.97;;;17.69;60.94
22651;BME280;11492;42.646;23.400;2022-11-20T06:36:04;94354.75;;;17.72;60.43
22651;BME280;11492;42.646;23.400;2022-11-20T06:38:29;94347.78;;;17.78;59.96
22651;BME280;11492;42.646;23.400;2022-11-20T06:40:55;94348.56;;;17.78;60.35
22651;BME280;11492;42.646;23.400;2022-11-20T06:43:21;94342.00;;;17.76;59.93
22651;BME280;11492;42.646;23.400;2022-11-20T06:45:55;94349.19;;;17.85;59.73
22651;BME280;11492;42.646;23.400;2022-11-20T06:48:20;94357.91;;;17.91;59.41
22651;BME280;11492;42.646;23.400;2022-11-20T06:50:46;94351.53;;;17.98;59.66
22651;BME280;11492;42.646;23.400;2022-11-20T06:53:11;94331.31;;;17.94;59.00
22651;BME280;11492;42.646;23.400;2022-11-20T06:55:36;94345.88;;;18.06;58.68
22651;BME280;11492;42.646;23.400;2022-11-20T06:58:02;94350.16;;;18.12;57.81
22651;BME280;11492;42.646;23.400;2022-11-20T07:00:27;94347.31;;;18.13;57.13
22651;BME280;11492;42.646;23.400;2022-11-20T07:02:53;94358.56;;;18.14;57.24
22651;BME280;11492;42.646;23.400;2022-11-20T07:05:18;94371.44;;;18.20;56.83
22651;BME280;11492;42.646;23.400;2022-11-20T07:07:43;94369.88;;;18.19;56.95
22651;BME280;11492;42.646;23.400;2022-11-20T07:10:09;94365.50;;;18.24;56.86
22651;BME280;11492;42.646;23.400;2022-11-20T07:12:35;94382.53;;;18.27;56.08
22651;BME280;11492;42.646;23.400;2022-11-20T07:15:00;94364.84;;;18.34;55.75
22651;BME280;11492;42.646;23.400;2022-11-20T07:17:26;94359.44;;;18.40;56.12
22651;BME280;11492;42.646;23.400;2022-11-20T07:19:51;94376.56;;;18.48;55.17
22651;BME280;11492;42.646;23.400;2022-11-20T07:22:17;94384.44;;;18.52;55.52
22651;BME280;11492;42.646;23.400;2022-11-20T07:24:42;94392.28;;;18.52;55.20
22651;BME280;11492;42.646;23.400;2022-11-20T07:27:07;94374.16;;;18.46;54.85
22651;BME280;11492;42.646;23.400;2022-11-20T07:29:33;94377.03;;;18.45;55.22
22651;BME280;11492;42.646;23.400;2022-11-20T07:31:58;94367.91;;;18.47;54.22
22651;BME280;11492;42.646;23.400;2022-11-20T07:34:24;94361.16;;;18.51;54.41
22651;BME280;11492;42.646;23.400;2022-11-20T07:36:49;94377.66;;;18.51;54.54
22651;BME280;11492;42.646;23.400;2022-11-20T07:39:15;94385.41;;;18.47;55.31
22651;BME280;11492;42.646;23.400;2022-11-20T07:41:40;94369.13;;;18.40;55.16
22651;BME280;11492;42.646;23.400;2022-11-20T07:44:06;94371.72;;;18.40;55.54
22651;BME280;11492;42.646;23.400;2022-11-20T07:46:32;94383.06;;;18.45;55.86
22651;BME280;11492;42.646;23.400;2022-11-20T07:48:57;94377.81;;;18.45;55.48
22651;BME280;11492;42.646;23.400;2022-11-20T07:51:22;94372.59;;;18.45;55.71
22651;BME280;11492;42.646;23.400;2022-11-20T07:53:51;94374.25;;;18.51;55.88
22651;BME280;11492;42.646;23.400;2022-11-20T07:56:16;94376.13;;;18.55;55.68
22651;BME280;11492;42.646;23.400;2022-11-20T07:58:42;94388.09;;;18.51;55.50
22651;BME280;11492;42.646;23.400;2022-11-20T08:01:07;94386.97;;;18.43;55.74
22651;BME280;11492;42.646;23.400;2022-11-20T08:03:33;94388.09;;;18.51;55.44
22651;BME280;11492;42.646;23.400;2022-11-20T08:06:00;94393.91;;;18.53;56.10
22651;BME280;11492;42.646;23.400;2022-11-20T08:08:26;94389.28;;;18.60;55.72
22651;BME280;11492;42.646;23.400;2022-11-20T08:10:52;94401.22;;;18.72;55.07
22651;BME280;11492;42.646;23.400;2022-11-20T08:13:17;94395.81;;;18.79;54.47
22651;BME280;11492;42.646;23.400;2022-11-20T08:16:01;94384.69;;;18.88;54.88
22651;BME280;11492;42.646;23.400;2022-11-20T08:18:27;94362.50;;;18.91;54.54
22651;BME280;11492;42.646;23.400;2022-11-20T08:20:52;94376.28;;;19.07;54.13
22651;BME280;11492;42.646;23.400;2022-11-20T08:23:17;94372.41;;;19.10;54.04
22651;BME280;11492;42.646;23.400;2022-11-20T08:25:43;94369.84;;;19.15;52.75
22651;BME280;11492;42.646;23.400;2022-11-20T08:28:09;94356.13;;;19.08;52.80
22651;BME280;11492;42.646;23.400;2022-11-20T08:30:35;94361.69;;;19.11;52.77
22651;BME280;11492;42.646;23.400;2022-11-20T08:33:07;94368.28;;;19.19;53.15
22651;BME280;11492;42.646;23.400;2022-11-20T08:35:37;94376.72;;;19.21;52.87
22651;BME280;11492;42.646;23.400;2022-11-20T08:38:04;94374.31;;;19.19;52.33
22651;BME280;11492;42.646;23.400;2022-11-20T09:45:47;94415.38;;;18.55;62.09
22651;BME280;11492;42.646;23.400;2022-11-20T09:51:07;94407.56;;;18.39;61.59
22651;BME280;11492;42.646;23.400;2022-11-20T09:56:33;94407.66;;;18.28;62.49
22651;BME280;11492;42.646;23.400;2022-11-20T09:59:03;94403.84;;;18.19;63.08
22651;BME280;11492;42.646;23.400;2022-11-20T10:01:32;94409.63;;;18.21;62.00
22651;BME280;11492;42.646;23.400;2022-11-20T10:04:12;94397.38;;;18.22;62.46
22651;BME280;11492;42.646;23.400;2022-11-20T10:06:50;94364.25;;;18.11;62.42
22651;BME280;11492;42.646;23.400;2022-11-20T10:22:35;94360.84;;;17.62;65.57
22651;BME280;11492;42.646;23.400;2022-11-20T10:25:15;94351.72;;;17.64;65.40
22651;BME280;11492;42.646;23.400;2022-11-20T10:27:47;94336.72;;;17.71;67.02
22651;BME280;11492;42.646;23.400;2022-11-20T10:30:19;94343.03;;;17.75;65.14
22651;BME280;11492;42.646;23.400;2022-11-20T10:32:50;94335.22;;;17.75;65.03
22651;BME280;11492;42.646;23.400;2022-11-20T10:50:03;94361.56;;;18.06;66.04
22651;BME280;11492;42.646;23.400;2022-11-20T10:57:57;94385.44;;;17.49;69.45
22651;BME280;11492;42.646;23.400;2022-11-20T11:00:25;94390.28;;;17.30;70.03
22651;BME280;11492;42.646;23.400;2022-11-20T11:02:52;94368.53;;;17.24;70.26
22651;BME280;11492;42.646;23.400;2022-11-20T11:05:41;94382.53;;;17.19;70.67
22651;BME280;11492;42.646;23.400;2022-11-20T11:08:15;94421.22;;;17.10;71.51
22651;BME280;11492;42.646;23.400;2022-11-20T11:10:53;94419.31;;;16.95;71.12
22651;BME280;11492;42.646;23.400;2022-11-20T11:13:25;94420.13;;;16.84;72.08
22651;BME280;11492;42.646;23.400;2022-11-20T11:15:51;94415.72;;;16.84;72.54
22651;BME280;11492;42.646;23.400;2022-11-20T11:18:30;94436.59;;;16.84;72.83
22651;BME280;11492;42.646;23.400;2022-11-20T11:20:56;94429.00;;;16.83;73.67
22651;BME280;11492;42.646;23.400;2022-11-20T11:23:34;94469.72;;;16.72;74.57
22651;BME280;11492;42.646;23.400;2022-11-20T11:26:03;94471.41;;;16.56;75.37
22651;BME280;11492;42.646;23.400;2022-11-20T11:28:29;94424.59;;;16.49;77.17
22651;BME280;11492;42.646;23.400;2022-11-20T11:30:55;94403.44;;;16.46;77.79
22651;BME280;11492;42.646;23.400;2022-11-20T11:33:28;94420.56;;;16.42;79.30
22651;BME280;11492;42.646;23.400;2022-11-20T11:36:00;94427.00;;;16.17;77.98
22651;BME280;11492;42.646;23.400;2022-11-20T11:38:39;94453.81;;;15.95;73.21
22651;BME280;11492;42.646;23.400;2022-11-20T11:41:08;94473.16;;;15.47;70.17
22651;BME280;11492;42.646;23.400;2022-11-20T11:43:36;94481.06;;;15.23;67.03
22651;BME280;11492;42.646;23.400;2022-11-20T11:46:35;94475.72;;;15.19;69.00
22651;BME280;11492;42.646;23.400;2022-11-20T11:51:56;94457.13;;;15.33;67.19
22651;BME280;11492;42.646;23.400;2022-11-20T11:54:48;94449.22;;;15.39;69.61
22651;BME280;11492;42.646;23.400;2022-11-20T11:57:47;94456.84;;;15.52;71.50
22651;BME280;11492;42.646;23.400;2022-11-20T12:00:16;94441.59;;;15.55;73.11
22651;BME280;11492;42.646;23.400;2022-11-20T12:12:50;94425.31;;;15.31;69.69
22651;BME280;11492;42.646;23.400;2022-11-20T12:15:25;94440.25;;;15.24;69.18
22651;BME280;11492;42.646;23.400;2022-11-20T12:17:52;94433.19;;;14.96;69.35
22651;BME280;11492;42.646;23.400;2022-11-20T12:20:17;94438.69;;;14.52;68.38
22651;BME280;11492;42.646;23.400;2022-11-20T12:22:58;94453.81;;;14.38;70.50
22651;BME280;11492;42.646;23.400;2022-11-20T12:25:35;94452.81;;;14.39;71.13
22651;BME280;11492;42.646;23.400;2022-11-20T12:39:21;94449.91;;;13.81;69.72
22651;BME280;11492;42.646;23.400;2022-11-20T12:50:49;94356.56;;;14.16;70.81
22651;BME280;11492;42.646;23.400;2022-11-20T13:04:23;94337.19;;;14.65;73.38
22651;BME280;11492;42.646;23.400;2022-11-20T13:06:56;94331.53;;;14.86;74.44
22651;BME280;11492;42.646;23.400;2022-11-20T13:09:24;94327.44;;;14.90;68.86
22651;BME280;11492;42.646;23.400;2022-11-20T13:14:45;94290.56;;;15.10;67.96
22651;BME280;11492;42.646;23.400;2022-11-20T13:17:43;94286.34;;;15.49;65.95
22651;BME280;11492;42.646;23.400;2022-11-20T13:20:16;94296.19;;;15.70;65.14
22651;BME280;11492;42.646;23.400;2022-11-20T13:22:47;94295.16;;;15.94;65.61
22651;BME280;11492;42.646;23.400;2022-11-20T13:25:22;94308.09;;;15.89;66.91
22651;BME280;11492;42.646;23.400;2022-11-20T13:27:48;94328.94;;;16.11;64.60
22651;BME280;11492;42.646;23.400;2022-11-20T13:30:16;94316.59;;;16.07;67.64
22651;BME280;11492;42.646;23.400;2022-11-20T13:33:06;94354.84;;;15.95;69.07
22651;BME280;11492;42.646;23.400;2022-11-20T13:35:41;94390.53;;;15.43;67.97
22651;BME280;11492;42.646;23.400;2022-11-20T13:38:14;94395.03;;;15.36;68.07
22651;BME280;11492;42.646;23.400;2022-11-20T13:40:54;94370.03;;;15.35;68.59
22651;BME280;11492;42.646;23.400;2022-11-20T13:48:28;94360.03;;;15.21;72.16
22651;BME280;11492;42.646;23.400;2022-11-20T13:53:37;94356.59;;;15.09;71.88
22651;BME280;11492;42.646;23.400;2022-11-20T14:01:57;94395.59;;;14.63;71.35
22651;BME280;11492;42.646;23.400;2022-11-20T14:04:29;94361.38;;;14.66;71.61
22651;BME280;11492;42.646;23.400;2022-11-20T14:06:56;94386.13;;;14.68;71.77
22651;BME280;11492;42.646;23.400;2022-11-20T14:09:30;94404.81;;;14.59;74.20
22651;BME280;11492;42.646;23.400;2022-11-20T14:11:56;94386.41;;;14.43;72.78
22651;BME280;11492;42.646;23.400;2022-11-20T14:14:27;94364.50;;;14.56;72.29
22651;BME280;11492;42.646;23.400;2022-11-20T14:17:08;94358.41;;;14.62;72.67
22651;BME280;11492;42.646;23.400;2022-11-20T14:19:44;94354.81;;;14.63;73.58
22651;BME280;11492;42.646;23.400;2022-11-20T14:22:17;94384.63;;;14.61;74.97
22651;BME280;11492;42.646;23.400;2022-11-20T14:24:44;94373.50;;;14.54;73.80
22651;BME280;11492;42.646;23.400;2022-11-20T14:27:18;94357.72;;;14.55;74.50
22651;BME280;11492;42.646;23.400;2022-11-20T14:29:46;94376.47;;;14.57;76.21
22651;BME280;11492;42.646;23.400;2022-11-20T14:32:18;94378.22;;;14.46;76.49
22651;BME280;11492;42.646;23.400;2022-11-20T14:34:47;94358.34;;;14.51;76.85
22651;BME280;11492;42.646;23.400;2022-11-20T14:37:20;94377.34;;;14.51;76.51
22651;BME280;11492;42.646;23.400;2022-11-20T14:39:52;94385.97;;;14.28;75.96
22651;BME280;11492;42.646;23.400;2022-11-20T14:42:20;94360.00;;;14.28;75.74
22651;BME280;11492;42.646;23.400;2022-11-20T14:44:47;94388.72;;;14.33;76.21
22651;BME280;11492;42.646;23.400;2022-11-20T14:47:18;94393.09;;;14.39;76.05
22651;BME280;11492;42.646;23.400;2022-11-20T14:49:44;94376.34;;;14.35;76.02
22651;BME280;11492;42.646;23.400;2022-11-20T14:52:16;94399.88;;;14.40;77.66
22651;BME280;11492;42.646;23.400;2022-11-20T14:54:47;94388.09;;;14.37;77.87
22651;BME280;11492;42.646;23.400;2022-11-20T14:57:32;94371.72;;;14.37;77.72
22651;BME280;11492;42.646;23.400;2022-11-20T15:00:19;94380.28;;;14.37;78.47
22651;BME280;11492;42.646;23.400;2022-11-20T15:02:47;94370.41;;;14.28;78.81
22651;BME280;11492;42.646;23.400;2022-11-20T15:05:14;94366.38;;;14.32;78.57
22651;BME280;11492;42.646;23.400;2022-11-20T15:07:45;94387.94;;;14.32;78.86
22651;BME280;11492;42.646;23.400;2022-11-20T15:10:13;94402.56;;;14.27;78.81
22651;BME280;11492;42.646;23.400;2022-11-20T15:12:56;94411.38;;;14.26;78.52
22651;BME280;11492;42.646;23.400;2022-11-20T15:15:36;94404.00;;;14.23;78.14
22651;BME280;11492;42.646;23.400;2022-11-20T15:18:04;94405.25;;;14.21;78.36
22651;BME280;11492;42.646;23.400;2022-11-20T15:20:32;94411.81;;;14.23;80.07
22651;BME280;11492;42.646;23.400;2022-11-20T15:22:58;94420.69;;;14.16;79.60
22651;BME280;11492;42.646;23.400;2022-11-20T15:25:24;94408.81;;;14.02;79.06
22651;BME280;11492;42.646;23.400;2022-11-20T15:27:53;94421.75;;;14.08;79.82
22651;BME280;11492;42.646;23.400;2022-11-20T15:30:20;94426.50;;;14.11;80.19
22651;BME280;11492;42.646;23.400;2022-11-20T15:32:47;94426.53;;;13.81;78.02
22651;BME280;11492;42.646;23.400;2022-11-20T15:35:13;94441.47;;;13.85;76.99
22651;BME280;11492;42.646;23.400;2022-11-20T15:37:39;94449.66;;;13.89;76.21
22651;BME280;11492;42.646;23.400;2022-11-20T15:40:06;94456.84;;;13.93;77.12
22651;BME280;11492;42.646;23.400;2022-11-20T15:42:32;94456.66;;;13.88;75.64
22651;BME280;11492;42.646;23.400;2022-11-20T15:44:58;94486.13;;;14.00;76.72
22651;BME280;11492;42.646;23.400;2022-11-20T15:47:31;94505.72;;;13.96;75.56
22651;BME280;11492;42.646;23.400;2022-11-20T15:49:58;94507.53;;;13.89;75.14